sensor_id;sensor_type;location;lat;lon;timestamp;P1;durP1;ratioP1;P2;durP2;ratioP2
3207;SDS011;1616;52.394;9.756;2023-04-25T00:01:05;11.90;;;4.20;;
3207;SDS011;1616;52.394;9.756;2023-04-25T00:03:31;8.47;;;3.73;;
3207;SDS011;1616;52.394;9.756;2023-04-25T00:06:00;5.80;;;3.53;;
3207;SDS011;1616;52.394;9.756;2023-04-25T00:08:29;15.90;;;4.57;;
3207;SDS011;1616;52.394;9.756;2023-04-25T00:10:56;17.13;;;3.77;;
3207;SDS011;1616;52.394;9.756;2023-04-25T00:13:22;7.80;;;4.27;;
3207;SDS011;1616;52.394;9.756;2023-04-25T00:15:47;5.83;;;3.63;;
3207;SDS011;1616;52.394;9.756;2023-04-25T00:18:13;9.57;;;4.27;;
3207;SDS011;1616;52.394;9.756;2023-04-25T00:20:40;10.47;;;4.13;;
3207;SDS011;1616;52.394;9.756;2023-04-25T00:23:09;8.40;;;3.37;;
3207;SDS011;1616;52.394;9.756;2023-04-25T00:25:35;12.70;;;4.27;;
3207;SDS011;1616;52.394;9.756;2023-04-25T00:28:01;5.63;;;4.07;;
3207;SDS011;1616;52.394;9.756;2023-04-25T00:30:27;5.50;;;3.40;;
3207;SDS011;1616;52.394;9.756;2023-04-25T00:32:52;8.27;;;3.90;;
3207;SDS011;1616;52.394;9.756;2023-04-25T00:35:18;9.57;;;3.50;;
3207;SDS011;1616;52.394;9.756;2023-04-25T00:37:43;12.47;;;3.93;;
3207;SDS011;1616;52.394;9.756;2023-04-25T00:40:10;15.73;;;4.17;;
3207;SDS011;1616;52.394;9.756;2023-04-25T00:42:36;10.77;;;3.90;;
3207;SDS011;1616;52.394;9.756;2023-04-25T00:45:03;13.87;;;4.17;;
3207;SDS011;1616;52.394;9.756;2023-04-25T00:47:30;12.27;;;4.30;;
3207;SDS011;1616;52.394;9.756;2023-04-25T00:49:57;7.40;;;4.10;;
3207;SDS011;1616;52.394;9.756;2023-04-25T00:52:22;8.13;;;4.00;;
3207;SDS011;1616;52.394;9.756;2023-04-25T00:54:48;11.57;;;4.70;;
3207;SDS011;1616;52.394;9.756;2023-04-25T00:57:14;10.60;;;5.63;;
3207;SDS011;1616;52.394;9.756;2023-04-25T00:59:39;9.33;;;4.50;;
3207;SDS011;1616;52.394;9.756;2023-04-25T01:02:10;5.43;;;4.23;;
3207;SDS011;1616;52.394;9.756;2023-04-25T01:04:35;4.60;;;3.57;;
3207;SDS011;1616;52.394;9.756;2023-04-25T01:07:01;7.63;;;3.80;;
3207;SDS011;1616;52.394;9.756;2023-04-25T01:09:27;13.30;;;3.97;;
3207;SDS011;1616;52.394;9.756;2023-04-25T01:11:55;11.63;;;4.53;;
3207;SDS011;1616;52.394;9.756;2023-04-25T01:14:22;4.90;;;4.40;;
3207;SDS011;1616;52.394;9.756;2023-04-25T01:16:48;4.93;;;4.20;;
3207;SDS011;1616;52.394;9.756;2023-04-25T01:19:15;13.93;;;4.40;;
3207;SDS011;1616;52.394;9.756;2023-04-25T01:21:43;18.10;;;5.83;;
3207;SDS011;1616;52.394;9.756;2023-04-25T01:24:09;7.70;;;4.13;;
3207;SDS011;1616;52.394;9.756;2023-04-25T01:26:35;10.40;;;4.27;;
3207;SDS011;1616;52.394;9.756;2023-04-25T01:29:01;16.00;;;5.80;;
3207;SDS011;1616;52.394;9.756;2023-04-25T01:31:28;10.43;;;4.53;;
3207;SDS011;1616;52.394;9.756;2023-04-25T01:33:55;8.33;;;4.40;;
3207;SDS011;1616;52.394;9.756;2023-04-25T01:36:21;7.90;;;4.60;;
3207;SDS011;1616;52.394;9.756;2023-04-25T01:38:47;14.97;;;5.20;;
3207;SDS011;1616;52.394;9.756;2023-04-25T01:41:13;8.93;;;5.30;;
3207;SDS011;1616;52.394;9.756;2023-04-25T01:43:39;11.60;;;5.00;;
3207;SDS011;1616;52.394;9.756;2023-04-25T01:46:05;11.03;;;4.60;;
3207;SDS011;1616;52.394;9.756;2023-04-25T01:48:31;10.27;;;4.70;;
3207;SDS011;1616;52.394;9.756;2023-04-25T01:50:57;11.57;;;5.23;;
3207;SDS011;1616;52.394;9.756;2023-04-25T01:53:23;7.07;;;5.37;;
3207;SDS011;1616;52.394;9.756;2023-04-25T01:55:49;7.70;;;5.17;;
3207;SDS011;1616;52.394;9.756;2023-04-25T01:58:15;11.50;;;4.90;;
3207;SDS011;1616;52.394;9.756;2023-04-25T02:00:40;11.43;;;5.33;;
3207;SDS011;1616;52.394;9.756;2023-04-25T02:03:07;5.83;;;4.60;;
3207;SDS011;1616;52.394;9.756;2023-04-25T02:05:39;11.80;;;5.77;;
3207;SDS011;1616;52.394;9.756;2023-04-25T02:08:06;12.70;;;5.40;;
3207;SDS011;1616;52.394;9.756;2023-04-25T02:10:32;9.73;;;4.37;;
3207;SDS011;1616;52.394;9.756;2023-04-25T02:12:59;9.57;;;4.70;;
3207;SDS011;1616;52.394;9.756;2023-04-25T02:15:24;7.40;;;5.03;;
3207;SDS011;1616;52.394;9.756;2023-04-25T02:17:50;12.73;;;5.97;;
3207;SDS011;1616;52.394;9.756;2023-04-25T02:20:18;8.60;;;5.20;;
3207;SDS011;1616;52.394;9.756;2023-04-25T02:22:45;15.60;;;5.33;;
3207;SDS011;1616;52.394;9.756;2023-04-25T02:25:11;8.97;;;4.77;;
3207;SDS011;1616;52.394;9.756;2023-04-25T02:27:37;11.50;;;4.43;;
3207;SDS011;1616;52.394;9.756;2023-04-25T02:30:03;12.80;;;4.83;;
3207;SDS011;1616;52.394;9.756;2023-04-25T02:32:30;14.77;;;5.33;;
3207;SDS011;1616;52.394;9.756;2023-04-25T02:34:56;10.63;;;4.90;;
3207;SDS011;1616;52.394;9.756;2023-04-25T02:37:23;10.00;;;5.17;;
3207;SDS011;1616;52.394;9.756;2023-04-25T02:39:49;10.80;;;3.70;;
3207;SDS011;1616;52.394;9.756;2023-04-25T02:42:15;14.83;;;3.50;;
3207;SDS011;1616;52.394;9.756;2023-04-25T02:44:40;9.53;;;3.73;;
3207;SDS011;1616;52.394;9.756;2023-04-25T02:47:06;7.47;;;4.40;;
3207;SDS011;1616;52.394;9.756;2023-04-25T02:49:32;15.93;;;4.20;;
3207;SDS011;1616;52.394;9.756;2023-04-25T02:51:57;9.87;;;3.50;;
3207;SDS011;1616;52.394;9.756;2023-04-25T02:54:23;20.93;;;4.77;;
3207;SDS011;1616;52.394;9.756;2023-04-25T02:56:49;16.80;;;6.53;;
3207;SDS011;1616;52.394;9.756;2023-04-25T02:59:15;12.30;;;4.13;;
3207;SDS011;1616;52.394;9.756;2023-04-25T03:01:40;11.27;;;4.10;;
3207;SDS011;1616;52.394;9.756;2023-04-25T03:04:06;25.40;;;4.83;;
3207;SDS011;1616;52.394;9.756;2023-04-25T03:06:31;19.20;;;3.23;;
3207;SDS011;1616;52.394;9.756;2023-04-25T03:08:57;20.80;;;4.17;;
3207;SDS011;1616;52.394;9.756;2023-04-25T03:11:24;10.53;;;3.43;;
3207;SDS011;1616;52.394;9.756;2023-04-25T03:13:50;25.27;;;5.70;;
3207;SDS011;1616;52.394;9.756;2023-04-25T03:16:16;16.73;;;4.53;;
3207;SDS011;1616;52.394;9.756;2023-04-25T03:18:41;9.73;;;3.00;;
3207;SDS011;1616;52.394;9.756;2023-04-25T03:21:07;23.73;;;3.70;;
3207;SDS011;1616;52.394;9.756;2023-04-25T03:23:33;11.03;;;3.00;;
3207;SDS011;1616;52.394;9.756;2023-04-25T03:25:58;15.57;;;3.80;;
3207;SDS011;1616;52.394;9.756;2023-04-25T03:28:25;11.07;;;3.47;;
3207;SDS011;1616;52.394;9.756;2023-04-25T03:30:50;18.37;;;4.30;;
3207;SDS011;1616;52.394;9.756;2023-04-25T03:33:16;13.33;;;3.67;;
3207;SDS011;1616;52.394;9.756;2023-04-25T03:35:42;20.53;;;4.77;;
3207;SDS011;1616;52.394;9.756;2023-04-25T03:38:08;20.50;;;4.83;;
3207;SDS011;1616;52.394;9.756;2023-04-25T03:40:33;30.10;;;4.97;;
3207;SDS011;1616;52.394;9.756;2023-04-25T03:42:59;12.53;;;3.57;;
3207;SDS011;1616;52.394;9.756;2023-04-25T03:45:25;13.23;;;3.47;;
3207;SDS011;1616;52.394;9.756;2023-04-25T03:47:51;17.60;;;3.80;;
3207;SDS011;1616;52.394;9.756;2023-04-25T03:50:16;12.20;;;3.60;;
3207;SDS011;1616;52.394;9.756;2023-04-25T03:52:42;10.13;;;3.10;;
3207;SDS011;1616;52.394;9.756;2023-04-25T03:55:08;14.37;;;3.90;;
3207;SDS011;1616;52.394;9.756;2023-04-25T03:57:35;16.13;;;3.80;;
3207;SDS011;1616;52.394;9.756;2023-04-25T04:00:00;19.73;;;3.43;;
3207;SDS011;1616;52.394;9.756;2023-04-25T04:02:26;20.17;;;3.50;;
3207;SDS011;1616;52.394;9.756;2023-04-25T04:04:52;12.10;;;3.57;;
3207;SDS011;1616;52.394;9.756;2023-04-25T04:07:18;25.70;;;3.57;;
3207;SDS011;1616;52.394;9.756;2023-04-25T04:09:45;17.53;;;5.03;;
3207;SDS011;1616;52.394;9.756;2023-04-25T04:12:10;17.80;;;3.47;;
3207;SDS011;1616;52.394;9.756;2023-04-25T04:14:36;20.43;;;5.13;;
3207;SDS011;1616;52.394;9.756;2023-04-25T04:17:01;19.70;;;4.23;;
3207;SDS011;1616;52.394;9.756;2023-04-25T04:19:27;21.53;;;3.43;;
3207;SDS011;1616;52.394;9.756;2023-04-25T04:21:52;21.97;;;3.60;;
3207;SDS011;1616;52.394;9.756;2023-04-25T04:24:18;16.40;;;3.83;;
3207;SDS011;1616;52.394;9.756;2023-04-25T04:26:43;18.10;;;3.60;;
3207;SDS011;1616;52.394;9.756;2023-04-25T04:29:10;18.73;;;3.73;;
3207;SDS011;1616;52.394;9.756;2023-04-25T04:31:36;26.77;;;4.23;;
3207;SDS011;1616;52.394;9.756;2023-04-25T04:34:02;9.40;;;2.60;;
3207;SDS011;1616;52.394;9.756;2023-04-25T04:36:28;12.93;;;3.10;;
3207;SDS011;1616;52.394;9.756;2023-04-25T04:38:54;19.47;;;3.87;;
3207;SDS011;1616;52.394;9.756;2023-04-25T04:41:21;14.03;;;3.80;;
3207;SDS011;1616;52.394;9.756;2023-04-25T04:43:47;10.27;;;2.80;;
3207;SDS011;1616;52.394;9.756;2023-04-25T04:46:13;10.93;;;2.50;;
3207;SDS011;1616;52.394;9.756;2023-04-25T04:48:39;15.50;;;2.50;;
3207;SDS011;1616;52.394;9.756;2023-04-25T04:51:05;15.47;;;3.43;;
3207;SDS011;1616;52.394;9.756;2023-04-25T04:53:31;14.67;;;3.03;;
3207;SDS011;1616;52.394;9.756;2023-04-25T04:55:57;39.17;;;3.00;;
3207;SDS011;1616;52.394;9.756;2023-04-25T04:58:23;36.50;;;4.40;;
3207;SDS011;1616;52.394;9.756;2023-04-25T05:00:49;21.30;;;2.90;;
3207;SDS011;1616;52.394;9.756;2023-04-25T05:03:15;24.63;;;4.63;;
3207;SDS011;1616;52.394;9.756;2023-04-25T05:05:41;19.00;;;3.10;;
3207;SDS011;1616;52.394;9.756;2023-04-25T05:08:07;9.23;;;3.03;;
3207;SDS011;1616;52.394;9.756;2023-04-25T05:10:32;18.47;;;3.20;;
3207;SDS011;1616;52.394;9.756;2023-04-25T05:12:58;18.10;;;4.83;;
3207;SDS011;1616;52.394;9.756;2023-04-25T05:15:24;16.90;;;3.17;;
3207;SDS011;1616;52.394;9.756;2023-04-25T05:17:49;18.83;;;3.63;;
3207;SDS011;1616;52.394;9.756;2023-04-25T05:20:15;21.00;;;3.63;;
3207;SDS011;1616;52.394;9.756;2023-04-25T05:22:41;15.30;;;3.33;;
3207;SDS011;1616;52.394;9.756;2023-04-25T05:25:07;15.97;;;2.80;;
3207;SDS011;1616;52.394;9.756;2023-04-25T05:27:34;10.83;;;3.00;;
3207;SDS011;1616;52.394;9.756;2023-04-25T05:30:00;23.67;;;4.40;;
3207;SDS011;1616;52.394;9.756;2023-04-25T05:32:26;20.73;;;4.47;;
3207;SDS011;1616;52.394;9.756;2023-04-25T05:34:53;20.67;;;4.23;;
3207;SDS011;1616;52.394;9.756;2023-04-25T05:37:19;14.10;;;2.73;;
3207;SDS011;1616;52.394;9.756;2023-04-25T05:39:44;15.20;;;2.93;;
3207;SDS011;1616;52.394;9.756;2023-04-25T05:42:10;16.77;;;2.70;;
3207;SDS011;1616;52.394;9.756;2023-04-25T05:44:36;15.70;;;3.17;;
3207;SDS011;1616;52.394;9.756;2023-04-25T05:47:01;16.87;;;3.17;;
3207;SDS011;1616;52.394;9.756;2023-04-25T05:49:29;14.20;;;2.90;;
3207;SDS011;1616;52.394;9.756;2023-04-25T05:51:54;15.83;;;3.30;;
3207;SDS011;1616;52.394;9.756;2023-04-25T05:54:20;22.80;;;3.40;;
3207;SDS011;1616;52.394;9.756;2023-04-25T05:56:46;13.33;;;2.97;;
3207;SDS011;1616;52.394;9.756;2023-04-25T05:59:11;10.03;;;2.67;;
3207;SDS011;1616;52.394;9.756;2023-04-25T06:01:37;19.60;;;3.60;;
3207;SDS011;1616;52.394;9.756;2023-04-25T06:04:03;19.00;;;3.33;;
3207;SDS011;1616;52.394;9.756;2023-04-25T06:06:28;7.67;;;2.20;;
3207;SDS011;1616;52.394;9.756;2023-04-25T06:08:54;13.87;;;3.03;;
3207;SDS011;1616;52.394;9.756;2023-04-25T06:11:20;12.63;;;2.40;;
3207;SDS011;1616;52.394;9.756;2023-04-25T06:13:46;15.17;;;2.80;;
3207;SDS011;1616;52.394;9.756;2023-04-25T06:16:12;8.93;;;2.33;;
3207;SDS011;1616;52.394;9.756;2023-04-25T06:18:37;13.73;;;2.87;;
3207;SDS011;1616;52.394;9.756;2023-04-25T06:21:03;8.77;;;1.90;;
3207;SDS011;1616;52.394;9.756;2023-04-25T06:23:29;21.33;;;2.97;;
3207;SDS011;1616;52.394;9.756;2023-04-25T06:25:54;7.63;;;2.33;;
3207;SDS011;1616;52.394;9.756;2023-04-25T06:28:20;20.63;;;2.67;;
3207;SDS011;1616;52.394;9.756;2023-04-25T06:30:47;21.03;;;2.53;;
3207;SDS011;1616;52.394;9.756;2023-04-25T06:33:13;17.33;;;2.67;;
3207;SDS011;1616;52.394;9.756;2023-04-25T06:35:38;16.57;;;2.60;;
3207;SDS011;1616;52.394;9.756;2023-04-25T06:38:04;7.47;;;2.70;;
3207;SDS011;1616;52.394;9.756;2023-04-25T06:40:30;14.27;;;2.47;;
3207;SDS011;1616;52.394;9.756;2023-04-25T06:42:55;10.83;;;2.30;;
3207;SDS011;1616;52.394;9.756;2023-04-25T06:45:21;10.97;;;2.23;;
3207;SDS011;1616;52.394;9.756;2023-04-25T06:47:46;12.20;;;2.43;;
3207;SDS011;1616;52.394;9.756;2023-04-25T06:50:12;6.83;;;2.60;;
3207;SDS011;1616;52.394;9.756;2023-04-25T06:52:37;9.17;;;2.33;;
3207;SDS011;1616;52.394;9.756;2023-04-25T06:55:03;10.80;;;2.40;;
3207;SDS011;1616;52.394;9.756;2023-04-25T06:57:30;9.83;;;2.17;;
3207;SDS011;1616;52.394;9.756;2023-04-25T06:59:56;8.00;;;2.23;;
3207;SDS011;1616;52.394;9.756;2023-04-25T07:02:21;8.60;;;2.83;;
3207;SDS011;1616;52.394;9.756;2023-04-25T07:04:47;9.00;;;2.10;;
3207;SDS011;1616;52.394;9.756;2023-04-25T07:07:13;6.70;;;1.70;;
3207;SDS011;1616;52.394;9.756;2023-04-25T07:09:39;4.53;;;1.80;;
3207;SDS011;1616;52.394;9.756;2023-04-25T07:12:05;11.80;;;2.20;;
3207;SDS011;1616;52.394;9.756;2023-04-25T07:14:30;8.40;;;1.63;;
3207;SDS011;1616;52.394;9.756;2023-04-25T07:16:56;8.83;;;2.20;;
3207;SDS011;1616;52.394;9.756;2023-04-25T07:19:22;8.50;;;2.07;;
3207;SDS011;1616;52.394;9.756;2023-04-25T07:21:51;9.60;;;2.47;;
3207;SDS011;1616;52.394;9.756;2023-04-25T07:24:17;8.43;;;2.10;;
3207;SDS011;1616;52.394;9.756;2023-04-25T07:26:43;5.43;;;2.00;;
3207;SDS011;1616;52.394;9.756;2023-04-25T07:29:08;5.33;;;1.97;;
3207;SDS011;1616;52.394;9.756;2023-04-25T07:31:34;8.30;;;2.77;;
3207;SDS011;1616;52.394;9.756;2023-04-25T07:34:00;16.23;;;2.07;;
3207;SDS011;1616;52.394;9.756;2023-04-25T07:36:26;8.83;;;1.80;;
3207;SDS011;1616;52.394;9.756;2023-04-25T07:38:52;6.43;;;1.80;;
3207;SDS011;1616;52.394;9.756;2023-04-25T07:41:18;16.57;;;2.30;;
3207;SDS011;1616;52.394;9.756;2023-04-25T07:43:45;17.93;;;3.23;;
3207;SDS011;1616;52.394;9.756;2023-04-25T07:46:10;9.33;;;2.03;;
3207;SDS011;1616;52.394;9.756;2023-04-25T07:48:36;8.23;;;2.40;;
3207;SDS011;1616;52.394;9.756;2023-04-25T07:51:01;6.63;;;1.80;;
3207;SDS011;1616;52.394;9.756;2023-04-25T07:53:29;9.03;;;1.90;;
3207;SDS011;1616;52.394;9.756;2023-04-25T07:55:55;7.60;;;1.60;;
3207;SDS011;1616;52.394;9.756;2023-04-25T07:58:21;4.70;;;1.63;;
3207;SDS011;1616;52.394;9.756;2023-04-25T08:00:48;5.90;;;1.87;;
3207;SDS011;1616;52.394;9.756;2023-04-25T08:03:13;7.87;;;1.43;;
3207;SDS011;1616;52.394;9.756;2023-04-25T08:05:39;7.00;;;3.10;;
3207;SDS011;1616;52.394;9.756;2023-04-25T08:08:05;13.07;;;3.97;;
3207;SDS011;1616;52.394;9.756;2023-04-25T08:10:32;10.30;;;1.83;;
3207;SDS011;1616;52.394;9.756;2023-04-25T08:12:58;6.10;;;1.47;;
3207;SDS011;1616;52.394;9.756;2023-04-25T08:15:24;14.30;;;1.60;;
3207;SDS011;1616;52.394;9.756;2023-04-25T08:17:50;10.00;;;1.60;;
3207;SDS011;1616;52.394;9.756;2023-04-25T08:20:16;7.10;;;1.87;;
3207;SDS011;1616;52.394;9.756;2023-04-25T08:22:42;8.53;;;1.63;;
3207;SDS011;1616;52.394;9.756;2023-04-25T08:25:08;14.23;;;1.70;;
3207;SDS011;1616;52.394;9.756;2023-04-25T08:27:33;6.83;;;1.40;;
3207;SDS011;1616;52.394;9.756;2023-04-25T08:30:00;4.03;;;1.30;;
3207;SDS011;1616;52.394;9.756;2023-04-25T08:32:27;5.80;;;2.40;;
3207;SDS011;1616;52.394;9.756;2023-04-25T08:34:52;2.20;;;1.17;;
3207;SDS011;1616;52.394;9.756;2023-04-25T08:37:20;5.30;;;1.40;;
3207;SDS011;1616;52.394;9.756;2023-04-25T08:39:46;6.03;;;1.40;;
3207;SDS011;1616;52.394;9.756;2023-04-25T08:42:13;9.27;;;1.97;;
3207;SDS011;1616;52.394;9.756;2023-04-25T08:44:40;7.90;;;2.00;;
3207;SDS011;1616;52.394;9.756;2023-04-25T08:47:06;4.90;;;1.60;;
3207;SDS011;1616;52.394;9.756;2023-04-25T08:49:32;2.80;;;1.40;;
3207;SDS011;1616;52.394;9.756;2023-04-25T08:51:59;6.30;;;1.80;;
3207;SDS011;1616;52.394;9.756;2023-04-25T08:54:32;11.77;;;1.67;;
3207;SDS011;1616;52.394;9.756;2023-04-25T08:57:00;3.93;;;1.43;;
3207;SDS011;1616;52.394;9.756;2023-04-25T08:59:28;2.57;;;1.20;;
3207;SDS011;1616;52.394;9.756;2023-04-25T09:01:54;7.10;;;1.60;;
3207;SDS011;1616;52.394;9.756;2023-04-25T09:04:20;2.10;;;1.17;;
3207;SDS011;1616;52.394;9.756;2023-04-25T09:06:46;1.77;;;1.10;;
3207;SDS011;1616;52.394;9.756;2023-04-25T09:09:13;6.27;;;1.57;;
3207;SDS011;1616;52.394;9.756;2023-04-25T09:11:39;4.23;;;1.00;;
3207;SDS011;1616;52.394;9.756;2023-04-25T09:14:21;2.70;;;1.17;;
3207;SDS011;1616;52.394;9.756;2023-04-25T09:21:56;1.47;;;1.00;;
3207;SDS011;1616;52.394;9.756;2023-04-25T09:24:36;5.23;;;1.10;;
3207;SDS011;1616;52.394;9.756;2023-04-25T09:27:05;4.40;;;1.10;;
3207;SDS011;1616;52.394;9.756;2023-04-25T09:29:33;2.23;;;1.07;;
3207;SDS011;1616;52.394;9.756;2023-04-25T09:32:13;2.47;;;0.97;;
3207;SDS011;1616;52.394;9.756;2023-04-25T09:34:44;3.90;;;1.00;;
3207;SDS011;1616;52.394;9.756;2023-04-25T09:37:17;3.13;;;0.90;;
3207;SDS011;1616;52.394;9.756;2023-04-25T09:39:47;5.90;;;1.30;;
3207;SDS011;1616;52.394;9.756;2023-04-25T09:42:15;2.40;;;0.90;;
3207;SDS011;1616;52.394;9.756;2023-04-25T09:44:42;1.53;;;1.10;;
3207;SDS011;1616;52.394;9.756;2023-04-25T09:47:12;3.83;;;1.00;;
3207;SDS011;1616;52.394;9.756;2023-04-25T09:49:40;2.43;;;1.20;;
3207;SDS011;1616;52.394;9.756;2023-04-25T09:52:07;3.00;;;0.90;;
3207;SDS011;1616;52.394;9.756;2023-04-25T09:54:34;7.23;;;1.93;;
3207;SDS011;1616;52.394;9.756;2023-04-25T09:57:03;2.30;;;1.07;;
3207;SDS011;1616;52.394;9.756;2023-04-25T09:59:50;1.63;;;1.00;;
3207;SDS011;1616;52.394;9.756;2023-04-25T10:02:21;6.10;;;1.47;;
3207;SDS011;1616;52.394;9.756;2023-04-25T10:04:52;2.53;;;1.20;;
3207;SDS011;1616;52.394;9.756;2023-04-25T10:07:20;5.30;;;1.07;;
3207;SDS011;1616;52.394;9.756;2023-04-25T10:09:50;1.90;;;0.87;;
3207;SDS011;1616;52.394;9.756;2023-04-25T10:12:26;1.60;;;1.13;;
3207;SDS011;1616;52.394;9.756;2023-04-25T10:14:52;5.63;;;1.10;;
3207;SDS011;1616;52.394;9.756;2023-04-25T10:17:19;2.17;;;1.00;;
3207;SDS011;1616;52.394;9.756;2023-04-25T10:19:46;4.37;;;1.10;;
3207;SDS011;1616;52.394;9.756;2023-04-25T10:22:20;3.40;;;1.00;;
3207;SDS011;1616;52.394;9.756;2023-04-25T10:24:54;2.83;;;1.90;;
3207;SDS011;1616;52.394;9.756;2023-04-25T10:27:21;5.10;;;2.00;;
3207;SDS011;1616;52.394;9.756;2023-04-25T10:30:00;5.00;;;1.13;;
3207;SDS011;1616;52.394;9.756;2023-04-25T10:32:32;8.33;;;1.30;;
3207;SDS011;1616;52.394;9.756;2023-04-25T10:35:06;1.80;;;1.07;;
3207;SDS011;1616;52.394;9.756;2023-04-25T10:40:26;2.63;;;1.07;;
3207;SDS011;1616;52.394;9.756;2023-04-25T10:42:52;3.10;;;1.17;;
3207;SDS011;1616;52.394;9.756;2023-04-25T10:45:19;2.93;;;1.00;;
3207;SDS011;1616;52.394;9.756;2023-04-25T10:47:45;3.33;;;1.10;;
3207;SDS011;1616;52.394;9.756;2023-04-25T10:50:11;3.63;;;1.37;;
3207;SDS011;1616;52.394;9.756;2023-04-25T10:52:39;4.70;;;1.40;;
3207;SDS011;1616;52.394;9.756;2023-04-25T10:55:07;5.50;;;1.20;;
3207;SDS011;1616;52.394;9.756;2023-04-25T10:57:40;1.70;;;1.00;;
3207;SDS011;1616;52.394;9.756;2023-04-25T11:02:45;3.57;;;1.87;;
3207;SDS011;1616;52.394;9.756;2023-04-25T11:05:55;4.40;;;1.10;;
3207;SDS011;1616;52.394;9.756;2023-04-25T11:08:03;2.20;;;1.20;;
3207;SDS011;1616;52.394;9.756;2023-04-25T11:10:36;9.00;;;1.20;;
3207;SDS011;1616;52.394;9.756;2023-04-25T11:13:02;3.83;;;1.30;;
3207;SDS011;1616;52.394;9.756;2023-04-25T11:15:28;4.23;;;1.23;;
3207;SDS011;1616;52.394;9.756;2023-04-25T11:17:54;1.70;;;0.80;;
3207;SDS011;1616;52.394;9.756;2023-04-25T11:20:20;4.80;;;1.00;;
3207;SDS011;1616;52.394;9.756;2023-04-25T11:22:47;1.80;;;1.00;;
3207;SDS011;1616;52.394;9.756;2023-04-25T11:25:14;1.80;;;0.90;;
3207;SDS011;1616;52.394;9.756;2023-04-25T11:27:51;9.90;;;1.50;;
3207;SDS011;1616;52.394;9.756;2023-04-25T11:30:23;2.27;;;1.27;;
3207;SDS011;1616;52.394;9.756;2023-04-25T11:32:50;4.53;;;1.00;;
3207;SDS011;1616;52.394;9.756;2023-04-25T11:35:17;1.77;;;0.90;;
3207;SDS011;1616;52.394;9.756;2023-04-25T11:37:49;2.00;;;1.30;;
3207;SDS011;1616;52.394;9.756;2023-04-25T11:40:15;1.90;;;1.10;;
3207;SDS011;1616;52.394;9.756;2023-04-25T11:42:45;4.40;;;1.20;;
3207;SDS011;1616;52.394;9.756;2023-04-25T11:45:11;1.50;;;1.10;;
3207;SDS011;1616;52.394;9.756;2023-04-25T11:47:38;2.57;;;1.30;;
3207;SDS011;1616;52.394;9.756;2023-04-25T11:50:04;3.70;;;1.60;;
3207;SDS011;1616;52.394;9.756;2023-04-25T11:52:39;3.03;;;1.27;;
3207;SDS011;1616;52.394;9.756;2023-04-25T11:55:07;4.60;;;1.30;;
3207;SDS011;1616;52.394;9.756;2023-04-25T11:57:44;9.17;;;2.40;;
3207;SDS011;1616;52.394;9.756;2023-04-25T12:00:17;4.43;;;1.30;;
3207;SDS011;1616;52.394;9.756;2023-04-25T12:02:50;2.70;;;1.83;;
3207;SDS011;1616;52.394;9.756;2023-04-25T12:05:20;5.23;;;2.33;;
3207;SDS011;1616;52.394;9.756;2023-04-25T12:07:50;3.30;;;1.33;;
3207;SDS011;1616;52.394;9.756;2023-04-25T12:10:17;2.53;;;1.27;;
3207;SDS011;1616;52.394;9.756;2023-04-25T12:12:44;3.83;;;1.30;;
3207;SDS011;1616;52.394;9.756;2023-04-25T12:15:11;3.83;;;1.10;;
3207;SDS011;1616;52.394;9.756;2023-04-25T12:17:50;1.73;;;1.40;;
3207;SDS011;1616;52.394;9.756;2023-04-25T12:20:21;1.50;;;0.87;;
3207;SDS011;1616;52.394;9.756;2023-04-25T12:22:50;3.37;;;0.70;;
3207;SDS011;1616;52.394;9.756;2023-04-25T12:25:36;2.20;;;0.63;;
3207;SDS011;1616;52.394;9.756;2023-04-25T12:28:17;1.83;;;0.73;;
3207;SDS011;1616;52.394;9.756;2023-04-25T12:30:59;2.00;;;0.90;;
3207;SDS011;1616;52.394;9.756;2023-04-25T12:33:27;2.23;;;0.80;;
3207;SDS011;1616;52.394;9.756;2023-04-25T12:35:54;5.37;;;0.83;;
3207;SDS011;1616;52.394;9.756;2023-04-25T12:38:31;1.30;;;0.90;;
3207;SDS011;1616;52.394;9.756;2023-04-25T12:41:00;6.07;;;1.10;;
3207;SDS011;1616;52.394;9.756;2023-04-25T12:43:26;3.73;;;0.70;;
3207;SDS011;1616;52.394;9.756;2023-04-25T12:45:53;3.13;;;0.90;;
3207;SDS011;1616;52.394;9.756;2023-04-25T12:48:19;2.23;;;0.77;;
3207;SDS011;1616;52.394;9.756;2023-04-25T12:50:46;1.50;;;0.70;;
3207;SDS011;1616;52.394;9.756;2023-04-25T12:53:21;1.67;;;0.87;;
3207;SDS011;1616;52.394;9.756;2023-04-25T12:55:49;1.83;;;0.60;;
3207;SDS011;1616;52.394;9.756;2023-04-25T12:58:16;1.27;;;0.70;;
3207;SDS011;1616;52.394;9.756;2023-04-25T13:00:43;1.40;;;0.63;;
3207;SDS011;1616;52.394;9.756;2023-04-25T13:03:10;1.30;;;0.80;;
3207;SDS011;1616;52.394;9.756;2023-04-25T13:05:37;1.30;;;0.73;;
3207;SDS011;1616;52.394;9.756;2023-04-25T13:08:03;1.70;;;0.70;;
3207;SDS011;1616;52.394;9.756;2023-04-25T13:10:29;1.00;;;0.70;;
3207;SDS011;1616;52.394;9.756;2023-04-25T13:12:55;1.83;;;0.70;;
3207;SDS011;1616;52.394;9.756;2023-04-25T13:15:20;1.40;;;0.70;;
3207;SDS011;1616;52.394;9.756;2023-04-25T13:17:46;1.70;;;0.80;;
3207;SDS011;1616;52.394;9.756;2023-04-25T13:20:12;2.33;;;0.80;;
3207;SDS011;1616;52.394;9.756;2023-04-25T13:22:40;2.13;;;0.70;;
3207;SDS011;1616;52.394;9.756;2023-04-25T13:25:07;2.23;;;0.90;;
3207;SDS011;1616;52.394;9.756;2023-04-25T13:27:33;6.53;;;1.00;;
3207;SDS011;1616;52.394;9.756;2023-04-25T13:30:00;3.80;;;1.00;;
3207;SDS011;1616;52.394;9.756;2023-04-25T13:32:32;1.90;;;1.00;;
3207;SDS011;1616;52.394;9.756;2023-04-25T13:35:02;2.23;;;0.80;;
3207;SDS011;1616;52.394;9.756;2023-04-25T13:37:32;4.10;;;1.00;;
3207;SDS011;1616;52.394;9.756;2023-04-25T13:40:02;2.30;;;1.00;;
3207;SDS011;1616;52.394;9.756;2023-04-25T13:42:30;2.90;;;1.10;;
3207;SDS011;1616;52.394;9.756;2023-04-25T13:44:56;4.40;;;1.10;;
3207;SDS011;1616;52.394;9.756;2023-04-25T13:47:22;1.73;;;0.97;;
3207;SDS011;1616;52.394;9.756;2023-04-25T13:49:48;2.90;;;1.20;;
3207;SDS011;1616;52.394;9.756;2023-04-25T13:52:15;3.33;;;1.10;;
3207;SDS011;1616;52.394;9.756;2023-04-25T13:54:41;2.23;;;1.10;;
3207;SDS011;1616;52.394;9.756;2023-04-25T13:57:07;4.37;;;1.43;;
3207;SDS011;1616;52.394;9.756;2023-04-25T13:59:33;1.90;;;0.90;;
3207;SDS011;1616;52.394;9.756;2023-04-25T14:02:00;1.40;;;0.63;;
3207;SDS011;1616;52.394;9.756;2023-04-25T14:04:25;2.20;;;0.80;;
3207;SDS011;1616;52.394;9.756;2023-04-25T14:06:52;2.23;;;0.90;;
3207;SDS011;1616;52.394;9.756;2023-04-25T14:09:19;2.73;;;1.00;;
3207;SDS011;1616;52.394;9.756;2023-04-25T14:11:46;2.80;;;0.97;;
3207;SDS011;1616;52.394;9.756;2023-04-25T14:14:11;1.53;;;1.40;;
3207;SDS011;1616;52.394;9.756;2023-04-25T14:16:38;1.83;;;0.93;;
3207;SDS011;1616;52.394;9.756;2023-04-25T14:19:04;1.33;;;1.00;;
3207;SDS011;1616;52.394;9.756;2023-04-25T14:21:30;1.43;;;1.00;;
3207;SDS011;1616;52.394;9.756;2023-04-25T14:23:57;2.60;;;1.50;;
3207;SDS011;1616;52.394;9.756;2023-04-25T14:26:23;2.27;;;1.10;;
3207;SDS011;1616;52.394;9.756;2023-04-25T14:28:50;2.37;;;1.60;;
3207;SDS011;1616;52.394;9.756;2023-04-25T14:31:16;2.60;;;1.10;;
3207;SDS011;1616;52.394;9.756;2023-04-25T14:33:42;1.77;;;1.30;;
3207;SDS011;1616;52.394;9.756;2023-04-25T14:36:08;1.40;;;1.17;;
3207;SDS011;1616;52.394;9.756;2023-04-25T14:38:34;2.33;;;0.97;;
3207;SDS011;1616;52.394;9.756;2023-04-25T14:41:00;2.13;;;1.00;;
3207;SDS011;1616;52.394;9.756;2023-04-25T14:43:25;2.17;;;1.10;;
3207;SDS011;1616;52.394;9.756;2023-04-25T14:45:51;2.87;;;1.00;;
3207;SDS011;1616;52.394;9.756;2023-04-25T14:48:17;1.93;;;0.90;;
3207;SDS011;1616;52.394;9.756;2023-04-25T14:50:44;2.23;;;0.80;;
3207;SDS011;1616;52.394;9.756;2023-04-25T14:53:11;9.33;;;1.37;;
3207;SDS011;1616;52.394;9.756;2023-04-25T14:55:37;1.83;;;0.90;;
3207;SDS011;1616;52.394;9.756;2023-04-25T14:58:03;3.63;;;1.30;;
3207;SDS011;1616;52.394;9.756;2023-04-25T15:00:29;3.23;;;1.00;;
3207;SDS011;1616;52.394;9.756;2023-04-25T15:02:57;4.63;;;1.00;;
3207;SDS011;1616;52.394;9.756;2023-04-25T15:05:23;7.20;;;2.13;;
3207;SDS011;1616;52.394;9.756;2023-04-25T15:07:49;4.13;;;1.00;;
3207;SDS011;1616;52.394;9.756;2023-04-25T15:10:14;1.73;;;1.07;;
3207;SDS011;1616;52.394;9.756;2023-04-25T15:12:42;1.87;;;1.47;;
3207;SDS011;1616;52.394;9.756;2023-04-25T15:15:08;6.17;;;1.20;;
3207;SDS011;1616;52.394;9.756;2023-04-25T15:17:38;5.40;;;1.30;;
3207;SDS011;1616;52.394;9.756;2023-04-25T15:20:06;4.07;;;1.27;;